Ship Status Report: callsign FICK

sailwx.info

Track history (hours):
 
Tides and Currents Weather Stations Pressure Air Temp Water Temp Dewpoint Dewpoint Depression Visibility Wind Speed Wind Dir Waves Ship Positions

Callsign FICK (name unknown)

Last reported at 2014-May-20 10:23 UTC. Time now 2014-Aug-30 00:31 UTC.
Position S 13°02' W 038°11'.
Warning: this ship's position is months out of date.

Date/timePositionNaut miles runAvg speedWind from/ knotsBaromVisibWave heightAir tempDewpointWater temp
2014-May-20 10:23S 13°02' W 038°11'1012.0
2014-May-20 09:33S 13°06' W 038°21'1212.5
2014-May-20 08:33S 13°06' W 038°33'1110.8
2014-May-20 07:33S 12°56' W 038°33'9 8.7
2014-May-20 06:31S 12°47' W 038°30'0 0.0
2014-May-20 05:31S 12°47' W 038°30'0 0.0
2014-May-20 04:31S 12°47' W 038°30'0 0.0
2014-May-20 03:31S 12°47' W 038°30'0 0.0
2014-May-20 02:31S 12°47' W 038°30'0 0.0
2014-May-20 01:31S 12°47' W 038°30'0 0.0
2014-May-20 00:31S 12°47' W 038°30'0 0.0
2014-May-19 23:31S 12°47' W 038°30'0 0.0
2014-May-19 22:31S 12°47' W 038°30'0 0.0
2014-May-19 21:31S 12°47' W 038°30'0 0.0
2014-May-19 20:31S 12°47' W 038°30'0 0.0
2014-May-19 19:31S 12°47' W 038°30'0 0.0
2014-May-19 18:31S 12°47' W 038°30'0 0.0
2014-May-19 17:31S 12°47' W 038°30'0 0.0
2014-May-19 15:28S 12°47' W 038°30'0 0.0
2014-May-19 13:13S 12°47' W 038°30'0 0.0
2014-May-19 11:31S 12°47' W 038°30'0 0.0
2014-May-19 07:19S 12°47' W 038°30'0 0.0
2014-May-19 04:31S 12°47' W 038°30'0 0.0
2014-May-19 02:25S 12°47' W 038°30'11 1.0
2014-May-18 15:31S 12°58' W 038°33'0 0.1
2014-May-18 13:13S 12°58' W 038°33'0 0.0
2014-May-18 12:25S 12°58' W 038°33'0 0.0
2014-May-18 11:16S 12°58' W 038°33'0 0.2
2014-May-18 10:31S 12°58' W 038°32'0 0.2
2014-May-18 09:31S 12°58' W 038°33'0 0.0
2014-May-18 08:31S 12°58' W 038°33'0 0.0
2014-May-18 07:31S 12°58' W 038°33'0 0.0
2014-May-18 06:31S 12°58' W 038°33'0 0.0
2014-May-18 05:31S 12°58' W 038°33'0 0.0
2014-May-18 04:31S 12°58' W 038°33'0 0.0
2014-May-18 03:31S 12°58' W 038°33'0 0.2
2014-May-18 02:31S 12°58' W 038°33'0 0.0
2014-May-18 01:32S 12°58' W 038°33'7 7.6
2014-May-18 00:33S 13°05' W 038°34'1211.6
2014-May-17 23:33S 13°07' W 038°22'  
Track history (hours):
 
Tides and Currents Weather Stations Pressure Air Temp Water Temp Dewpoint Dewpoint Depression Visibility Wind Speed Wind Dir Waves Ship Positions

Callsign FICK (name unknown)

Last reported at 2014-May-20 10:23 UTC. Time now 2014-Aug-30 00:32 UTC.
Position S 13°02' W 038°11'.
Warning: this ship's position is months out of date.

Date/timePositionNaut miles runAvg speedWind from/ knotsBaromVisibWave heightAir tempDewpointWater temp
2014-May-20 10:23S 13°02' W 038°11'1012.0
2014-May-20 09:33S 13°06' W 038°21'1212.5
2014-May-20 08:33S 13°06' W 038°33'1110.8
2014-May-20 07:33S 12°56' W 038°33'9 8.7
2014-May-20 06:31S 12°47' W 038°30'0 0.0
2014-May-20 05:31S 12°47' W 038°30'0 0.0
2014-May-20 04:31S 12°47' W 038°30'0 0.0
2014-May-20 03:31S 12°47' W 038°30'0 0.0
2014-May-20 02:31S 12°47' W 038°30'0 0.0
2014-May-20 01:31S 12°47' W 038°30'0 0.0
2014-May-20 00:31S 12°47' W 038°30'0 0.0
2014-May-19 23:31S 12°47' W 038°30'0 0.0
2014-May-19 22:31S 12°47' W 038°30'0 0.0
2014-May-19 21:31S 12°47' W 038°30'0 0.0
2014-May-19 20:31S 12°47' W 038°30'0 0.0
2014-May-19 19:31S 12°47' W 038°30'0 0.0
2014-May-19 18:31S 12°47' W 038°30'0 0.0
2014-May-19 17:31S 12°47' W 038°30'0 0.0
2014-May-19 15:28S 12°47' W 038°30'0 0.0
2014-May-19 13:13S 12°47' W 038°30'0 0.0
2014-May-19 11:31S 12°47' W 038°30'0 0.0
2014-May-19 07:19S 12°47' W 038°30'0 0.0
2014-May-19 04:31S 12°47' W 038°30'0 0.0
2014-May-19 02:25S 12°47' W 038°30'11 1.0
2014-May-18 15:31S 12°58' W 038°33'0 0.1
2014-May-18 13:13S 12°58' W 038°33'0 0.0
2014-May-18 12:25S 12°58' W 038°33'0 0.0
2014-May-18 11:16S 12°58' W 038°33'0 0.2
2014-May-18 10:31S 12°58' W 038°32'0 0.2
2014-May-18 09:31S 12°58' W 038°33'0 0.0
2014-May-18 08:31S 12°58' W 038°33'0 0.0
2014-May-18 07:31S 12°58' W 038°33'0 0.0
2014-May-18 06:31S 12°58' W 038°33'0 0.0
2014-May-18 05:31S 12°58' W 038°33'0 0.0
2014-May-18 04:31S 12°58' W 038°33'0 0.0
2014-May-18 03:31S 12°58' W 038°33'0 0.2
2014-May-18 02:31S 12°58' W 038°33'0 0.0
2014-May-18 01:32S 12°58' W 038°33'7 7.6
2014-May-18 00:33S 13°05' W 038°34'1211.6
2014-May-17 23:33S 13°07' W 038°22'  

Dump ship's entire track history